Terminal Aerodrome Forecast
Issued by NWS

Current Version | Previous Version | Text Only | Print | Product List | Glossary On
Versions: 1 2 3 4 5 6 7 8 9 10 11 12 13 14
000
FTUS41 KPBZ 300520
TAFHLG
TAF
KHLG 300520Z 3006/3106 17004KT P6SM SCT110
     FM301500 21008KT P6SM VCSH FEW050 SCT120 PROB30 3018/3022 P6SM
      -TSRA BKN050CB=

USA.gov is the U.S. government's official web portal to all federal, state and local government web resources and services.